createdAt,value
2023-05-01T00:00:26.410Z,9.711754
2023-05-01T00:01:26.425Z,9.711900
2023-05-01T00:02:26.469Z,9.711884
2023-05-01T00:03:26.559Z,9.711828
2023-05-01T00:04:26.491Z,9.711752
2023-05-01T00:05:26.382Z,9.711757
2023-05-01T00:06:26.437Z,9.711950
2023-05-01T00:07:26.353Z,9.711797
2023-05-01T00:08:28.055Z,9.711946
2023-05-01T00:09:26.394Z,9.711773
2023-05-01T00:10:26.336Z,9.711866
2023-05-01T00:11:26.332Z,9.711908
2023-05-01T00:12:26.334Z,9.711872
2023-05-01T00:13:27.039Z,9.711966
2023-05-01T00:14:26.332Z,9.712008
2023-05-01T00:15:26.300Z,9.712055
2023-05-01T00:16:26.324Z,9.712004
2023-05-01T00:17:26.460Z,9.712190
2023-05-01T00:18:26.304Z,9.712213
2023-05-01T00:19:26.293Z,9.712275
2023-05-01T00:20:26.277Z,9.712282
2023-05-01T00:24:27.270Z,9.712120
2023-05-01T00:25:27.255Z,9.712130
2023-05-01T00:26:27.254Z,9.712149
2023-05-01T00:27:27.256Z,9.712010
2023-05-01T00:28:27.290Z,9.712118
2023-05-01T00:29:27.233Z,9.712007
2023-05-01T00:30:27.224Z,9.711862
2023-05-01T00:31:27.223Z,9.711793
2023-05-01T00:32:27.238Z,9.711761
2023-05-01T00:33:27.203Z,9.711724
2023-05-01T00:34:27.192Z,9.711830
2023-05-01T00:35:27.206Z,9.711910
2023-05-01T00:36:27.184Z,9.711954
2023-05-01T00:37:27.184Z,9.711943
2023-05-01T00:38:27.156Z,9.711883
2023-05-01T00:39:27.169Z,9.711934
2023-05-01T00:40:27.137Z,9.711885
2023-05-01T00:41:27.144Z,9.711659
2023-05-01T00:42:27.152Z,9.711780
2023-05-01T00:43:27.137Z,9.711905
2023-05-01T00:44:27.110Z,9.711841
2023-05-01T00:45:28.108Z,9.711666
2023-05-01T00:46:27.172Z,9.711836
2023-05-01T00:47:27.134Z,9.711876
2023-05-01T00:48:27.083Z,9.711925
2023-05-01T00:49:27.093Z,9.711882
2023-05-01T00:50:27.068Z,9.711939
2023-05-01T00:51:27.078Z,9.711527
2023-05-01T00:52:27.057Z,9.711917
2023-05-01T00:53:27.046Z,9.711904
2023-05-01T00:54:27.040Z,9.711948
2023-05-01T00:55:27.027Z,9.711776
2023-05-01T00:56:27.035Z,9.711850
2023-05-01T00:57:27.039Z,9.711712
2023-05-01T00:58:27.023Z,9.711750
2023-05-01T00:59:27.016Z,9.711721
2023-05-01T01:00:27.006Z,9.711703
2023-05-01T01:01:27.030Z,9.711723
2023-05-01T01:02:26.982Z,9.711682
2023-05-01T01:03:26.971Z,9.711680
2023-05-01T01:04:27.031Z,9.711676
2023-05-01T01:05:27.653Z,9.711682
2023-05-01T01:06:26.993Z,9.711694
2023-05-01T01:07:26.949Z,9.711682
2023-05-01T01:08:26.924Z,9.711738
2023-05-01T01:09:26.917Z,9.711742
2023-05-01T01:10:26.909Z,9.711728
2023-05-01T01:11:26.919Z,9.711731
2023-05-01T01:12:26.910Z,9.711672
2023-05-01T01:13:26.905Z,9.711710
2023-05-01T01:14:26.899Z,9.711659
2023-05-01T01:15:26.875Z,9.711695
2023-05-01T01:16:27.213Z,9.711648
2023-05-01T01:17:26.866Z,9.711683
2023-05-01T01:18:26.860Z,9.711651
2023-05-01T01:19:26.860Z,9.711688
2023-05-01T01:20:26.848Z,9.711691
2023-05-01T01:21:26.822Z,9.711691
2023-05-01T01:22:26.834Z,9.711724
2023-05-01T01:23:26.807Z,9.711683
2023-05-01T01:24:26.817Z,9.711670
2023-05-01T01:25:26.806Z,9.711659
2023-05-01T01:26:26.787Z,9.711791
2023-05-01T01:27:26.808Z,9.712004
2023-05-01T01:28:26.767Z,9.712016
2023-05-01T01:29:26.802Z,9.711857
2023-05-01T01:30:26.759Z,9.711833
2023-05-01T01:31:26.809Z,9.711720
2023-05-01T01:32:26.797Z,9.711630
2023-05-01T01:33:26.730Z,9.711858
2023-05-01T01:34:26.744Z,9.711729
2023-05-01T01:35:26.709Z,9.711662
2023-05-01T01:36:26.712Z,9.711639
2023-05-01T01:37:26.705Z,9.711691
2023-05-01T01:38:26.708Z,9.711670
2023-05-01T01:39:26.691Z,9.711723
2023-05-01T01:40:26.670Z,9.711774
2023-05-01T01:41:26.680Z,9.711760
2023-05-01T01:42:26.686Z,9.711704
2023-05-01T01:43:26.670Z,9.711761
2023-05-01T01:44:26.645Z,9.711754
2023-05-01T01:45:26.654Z,9.711595
2023-05-01T01:46:26.686Z,9.711702
2023-05-01T01:47:26.674Z,9.711817
2023-05-01T01:48:26.616Z,9.711759
2023-05-01T01:49:26.627Z,9.712019
2023-05-01T01:50:26.615Z,9.712097
2023-05-01T01:51:26.599Z,9.712204
2023-05-01T01:52:26.610Z,9.712109
2023-05-01T01:53:26.578Z,9.712227
2023-05-01T01:54:26.577Z,9.712105
2023-05-01T01:55:27.156Z,9.711990
2023-05-01T01:56:26.546Z,9.711621
2023-05-01T01:57:26.554Z,9.711889
2023-05-01T01:58:26.653Z,9.711710
2023-05-01T01:59:26.544Z,9.711668
2023-05-01T02:00:27.147Z,9.711743
2023-05-01T02:01:26.540Z,9.711734
2023-05-01T02:02:26.697Z,9.711835
2023-05-01T02:03:26.722Z,9.711998
2023-05-01T02:04:26.509Z,9.711779
2023-05-01T02:05:26.489Z,9.711747
2023-05-01T02:06:26.510Z,9.711728
2023-05-01T02:07:26.458Z,9.711695
2023-05-01T02:08:26.441Z,9.711658
2023-05-01T02:09:26.450Z,9.711662
2023-05-01T02:10:26.451Z,9.711637
2023-05-01T02:11:26.432Z,9.711639
2023-05-01T02:12:26.464Z,9.711661
2023-05-01T02:13:26.410Z,9.711630
2023-05-01T02:14:26.425Z,9.711646
2023-05-01T02:15:26.414Z,9.711621
2023-05-01T02:16:26.430Z,9.711633
2023-05-01T02:17:26.429Z,9.711626
2023-05-01T02:18:26.373Z,9.711678
2023-05-01T02:19:26.380Z,9.711669
2023-05-01T02:20:26.368Z,9.711649
2023-05-01T02:21:26.380Z,9.711638
2023-05-01T02:22:26.350Z,9.711630
2023-05-01T02:23:26.338Z,9.711655
2023-05-01T02:24:26.432Z,9.711651
2023-05-01T02:25:27.907Z,9.711654
2023-05-01T02:26:26.334Z,9.711659
2023-05-01T02:27:26.347Z,9.711642
2023-05-01T02:28:26.305Z,9.711609
2023-05-01T02:29:26.288Z,9.711681
2023-05-01T02:30:26.309Z,9.711718
2023-05-01T02:31:26.302Z,9.711679
2023-05-01T02:32:26.345Z,9.711662
2023-05-01T02:33:26.259Z,9.711713
2023-05-01T02:34:26.247Z,9.711721
2023-05-01T02:35:26.275Z,9.711668
2023-05-01T02:36:26.240Z,9.711626
2023-05-01T02:37:26.248Z,9.711722
2023-05-01T02:38:26.238Z,9.711722
2023-05-01T02:39:26.248Z,9.711692
2023-05-01T02:40:26.219Z,9.711743
2023-05-01T02:41:28.190Z,9.711669
2023-05-01T02:42:26.192Z,9.711685
2023-05-01T02:43:26.184Z,9.711721
2023-05-01T02:44:26.192Z,9.711657
2023-05-01T02:45:26.231Z,9.711594
2023-05-01T02:46:26.235Z,9.711629
2023-05-01T02:47:26.242Z,9.711619
2023-05-01T02:48:26.188Z,9.711692
2023-05-01T02:49:26.162Z,9.711619
2023-05-01T02:50:26.138Z,9.711647
2023-05-01T02:51:26.128Z,9.711610
2023-05-01T02:52:26.192Z,9.711643
2023-05-01T02:53:26.701Z,9.711728
2023-05-01T02:54:26.126Z,9.711616
2023-05-01T02:55:26.104Z,9.711650
2023-05-01T02:56:26.100Z,9.711625
2023-05-01T02:57:26.096Z,9.711599
2023-05-01T02:58:27.081Z,9.711658
2023-05-01T02:59:26.671Z,9.711543
2023-05-01T03:00:26.088Z,9.711579
2023-05-01T03:01:26.153Z,9.711653
2023-05-01T03:02:26.045Z,9.711610
2023-05-01T03:03:26.059Z,9.711760
2023-05-01T03:04:26.057Z,9.711846
2023-05-01T03:05:26.044Z,9.711794
2023-05-01T03:06:26.042Z,9.711831
2023-05-01T03:07:26.026Z,9.711663
2023-05-01T03:08:26.010Z,9.711830
2023-05-01T03:09:25.989Z,9.711615
2023-05-01T03:10:25.992Z,9.711748
2023-05-01T03:11:25.973Z,9.711759
2023-05-01T03:12:25.974Z,9.712143
2023-05-01T03:13:25.988Z,9.711790
2023-05-01T03:14:25.964Z,9.711722
2023-05-01T03:15:25.957Z,9.712124
2023-05-01T03:16:25.996Z,9.712098
2023-05-01T03:17:25.953Z,9.711833
2023-05-01T03:18:25.934Z,9.711726
2023-05-01T03:19:25.913Z,9.711806
2023-05-01T03:20:26.571Z,9.711753
2023-05-01T03:21:25.921Z,9.711843
2023-05-01T03:22:25.888Z,9.711684
2023-05-01T03:23:25.885Z,9.711592
2023-05-01T03:24:25.886Z,9.711674
2023-05-01T03:25:25.864Z,9.711682
2023-05-01T03:26:25.868Z,9.711825
2023-05-01T03:27:25.840Z,9.711818
2023-05-01T03:28:25.915Z,9.711783
2023-05-01T03:29:25.860Z,9.711843
2023-05-01T03:30:25.841Z,9.711703
2023-05-01T03:31:25.876Z,9.711635
2023-05-01T03:32:26.061Z,9.711665
2023-05-01T03:33:25.824Z,9.711640
2023-05-01T03:34:25.798Z,9.711659
2023-05-01T03:35:25.875Z,9.711668
2023-05-01T03:36:25.777Z,9.711650
2023-05-01T03:37:25.796Z,9.711679
2023-05-01T03:38:25.756Z,9.711662
2023-05-01T03:39:25.755Z,9.711640
2023-05-01T03:40:26.752Z,9.711658
2023-05-01T03:41:25.735Z,9.711652
2023-05-01T03:42:25.739Z,9.711626
2023-05-01T03:43:25.844Z,9.711651
2023-05-01T03:44:25.726Z,9.711653
2023-05-01T03:45:25.701Z,9.711635
2023-05-01T03:46:25.707Z,9.711646
2023-05-01T03:47:26.759Z,9.711641
2023-05-01T03:48:25.724Z,9.711606
2023-05-01T03:49:25.676Z,9.711640
2023-05-01T03:50:25.679Z,9.711631
2023-05-01T03:51:25.712Z,9.711627
2023-05-01T03:52:25.702Z,9.711628
2023-05-01T03:53:25.646Z,9.711643
2023-05-01T03:54:25.658Z,9.711665
2023-05-01T03:55:25.645Z,9.711574
2023-05-01T03:56:25.728Z,9.711582
2023-05-01T03:57:25.617Z,9.711591
2023-05-01T03:58:25.603Z,9.711573
2023-05-01T03:59:25.605Z,9.711638
2023-05-01T04:00:25.592Z,9.711629
2023-05-01T04:01:25.610Z,9.711581
2023-05-01T04:02:25.719Z,9.711668
2023-05-01T04:03:25.631Z,9.711645
2023-05-01T04:04:26.228Z,9.711640
2023-05-01T04:05:26.553Z,9.711625
2023-05-01T04:06:25.577Z,9.711687
2023-05-01T04:07:25.537Z,9.711649
2023-05-01T04:08:25.533Z,9.711608
2023-05-01T04:09:25.527Z,9.711597
2023-05-01T04:10:25.513Z,9.711564
2023-05-01T04:11:25.520Z,9.711625
2023-05-01T04:12:25.499Z,9.711632
2023-05-01T04:13:25.708Z,9.711647
2023-05-01T04:14:26.519Z,9.711677
2023-05-01T04:15:25.493Z,9.711704
2023-05-01T04:16:25.529Z,9.711703
2023-05-01T04:17:25.466Z,9.711633
2023-05-01T04:18:25.458Z,9.711619
2023-05-01T04:19:25.479Z,9.711596
2023-05-01T04:20:25.446Z,9.711629
2023-05-01T04:21:26.205Z,9.711629
2023-05-01T04:22:25.477Z,9.711548
2023-05-01T04:23:25.426Z,9.711552
2023-05-01T04:24:25.444Z,9.711517
2023-05-01T04:25:25.400Z,9.711650
2023-05-01T04:26:28.224Z,9.711690
2023-05-01T04:27:25.382Z,9.711692
2023-05-01T04:28:25.424Z,9.711703
2023-05-01T04:29:25.373Z,9.711656
2023-05-01T04:30:25.366Z,9.711596
2023-05-01T04:31:25.396Z,9.711602
2023-05-01T04:32:25.354Z,9.711628
2023-05-01T04:33:25.347Z,9.711778
2023-05-01T04:34:25.325Z,9.711754
2023-05-01T04:35:25.345Z,9.711794
2023-05-01T04:36:27.182Z,9.711717
2023-05-01T04:37:25.320Z,9.711666
2023-05-01T04:38:25.304Z,9.711688
2023-05-01T04:39:25.275Z,9.711629
2023-05-01T04:40:26.112Z,9.711720
2023-05-01T04:41:25.278Z,9.711755
2023-05-01T04:42:25.271Z,9.711717
2023-05-01T04:43:25.248Z,9.711764
2023-05-01T04:44:25.289Z,9.711708
2023-05-01T04:45:25.247Z,9.711568
2023-05-01T04:46:25.229Z,9.711496
2023-05-01T04:47:25.221Z,9.711531
2023-05-01T04:48:25.216Z,9.711482
2023-05-01T04:49:27.091Z,9.711755
2023-05-01T04:50:25.219Z,9.711744
2023-05-01T04:51:25.202Z,9.711687
2023-05-01T04:52:25.187Z,9.711596
2023-05-01T04:53:25.205Z,9.711656
2023-05-01T04:54:26.182Z,9.711701
2023-05-01T04:55:26.193Z,9.711738
2023-05-01T04:56:25.162Z,9.711630
2023-05-01T04:57:25.163Z,9.711596
2023-05-01T04:58:25.137Z,9.711663
2023-05-01T04:59:25.141Z,9.711683
2023-05-01T05:00:25.133Z,9.711697
2023-05-01T05:01:25.188Z,9.711586
2023-05-01T05:02:25.161Z,9.711564
2023-05-01T05:03:25.186Z,9.711643
2023-05-01T05:04:25.161Z,9.711703
2023-05-01T05:05:25.143Z,9.711632
2023-05-01T05:06:25.170Z,9.711612
2023-05-01T05:07:25.069Z,9.711579
2023-05-01T05:08:25.053Z,9.711624
2023-05-01T05:09:25.086Z,9.711625
2023-05-01T05:10:25.063Z,9.711658
2023-05-01T05:11:25.063Z,9.711642
2023-05-01T05:12:25.061Z,9.711587
2023-05-01T05:13:25.042Z,9.711604
2023-05-01T05:14:25.693Z,9.711686
2023-05-01T05:15:25.020Z,9.711688
2023-05-01T05:16:25.037Z,9.711659
2023-05-01T05:17:25.011Z,9.711667
2023-05-01T05:18:25.032Z,9.711683
2023-05-01T05:19:24.978Z,9.711681
2023-05-01T05:20:24.982Z,9.711658
2023-05-01T05:21:24.979Z,9.711720
2023-05-01T05:22:24.968Z,9.711751
2023-05-01T05:23:24.951Z,9.711777
2023-05-01T05:24:24.951Z,9.711722
2023-05-01T05:25:24.987Z,9.711622
2023-05-01T05:26:24.947Z,9.711718
2023-05-01T05:27:24.988Z,9.711752
2023-05-01T05:28:24.905Z,9.711775
2023-05-01T05:29:26.617Z,9.711996
2023-05-01T05:30:24.894Z,9.711664
2023-05-01T05:31:24.967Z,9.711636
2023-05-01T05:32:24.967Z,9.711766
2023-05-01T05:33:24.887Z,9.711499
2023-05-01T05:34:25.741Z,9.711528
2023-05-01T05:35:24.863Z,9.711711
2023-05-01T05:36:24.848Z,9.711815
2023-05-01T05:37:24.831Z,9.711658
2023-05-01T05:38:24.862Z,9.711710
2023-05-01T05:39:24.869Z,9.711548
2023-05-01T05:40:24.827Z,9.711461
2023-05-01T05:41:24.805Z,9.711677
2023-05-01T05:42:24.850Z,9.711389
2023-05-01T05:43:27.329Z,9.711413
2023-05-01T05:44:25.772Z,9.711443
2023-05-01T05:45:24.793Z,9.711386
2023-05-01T05:46:24.817Z,9.711422
2023-05-01T05:47:24.824Z,9.711617
2023-05-01T05:48:24.804Z,9.711619
2023-05-01T05:49:24.752Z,9.711560
2023-05-01T05:50:25.632Z,9.711572
2023-05-01T05:51:26.697Z,9.711534
2023-05-01T05:52:24.736Z,9.711570
2023-05-01T05:53:25.999Z,9.711488
2023-05-01T05:57:33.507Z,9.712052
2023-05-01T05:58:33.464Z,9.711992
2023-05-01T05:59:33.471Z,9.712040
2023-05-01T06:00:33.458Z,9.712208
2023-05-01T06:01:35.166Z,9.712067
2023-05-01T06:02:33.575Z,9.711656
2023-05-01T06:03:33.750Z,9.711702
2023-05-01T06:04:33.426Z,9.711668
2023-05-01T06:05:33.454Z,9.711658
2023-05-01T06:06:33.449Z,9.711699
2023-05-01T06:07:33.428Z,9.711727
2023-05-01T06:08:33.387Z,9.711749
2023-05-01T06:11:44.337Z,9.711694
2023-05-01T06:12:45.545Z,9.711740
2023-05-01T06:13:44.543Z,9.711767
2023-05-01T06:14:43.539Z,9.711800
2023-05-01T06:15:43.575Z,9.711699
2023-05-01T06:16:44.074Z,9.711724
2023-05-01T06:17:43.570Z,9.711752
2023-05-01T06:18:45.674Z,9.711713
2023-05-01T06:19:45.406Z,9.711718
2023-05-01T06:20:43.492Z,9.711759
2023-05-01T06:21:44.732Z,9.711699
2023-05-01T06:22:43.483Z,9.711762
2023-05-01T06:23:43.481Z,9.711761
2023-05-01T06:25:16.380Z,9.711730
2023-05-01T06:25:43.452Z,9.711720
2023-05-01T06:26:43.457Z,9.711688
2023-05-01T06:27:43.473Z,9.711699
2023-05-01T06:28:43.433Z,9.711688
2023-05-01T06:29:43.417Z,9.711698
2023-05-01T06:30:43.426Z,9.711681
2023-05-01T06:31:43.414Z,9.711784
2023-05-01T06:32:43.443Z,9.711844
2023-05-01T06:33:43.412Z,9.711773
2023-05-01T06:34:43.377Z,9.711790
2023-05-01T06:35:43.410Z,9.711843
2023-05-01T06:36:43.363Z,9.711848
2023-05-01T06:37:44.374Z,9.711820
2023-05-01T06:38:43.344Z,9.711840
2023-05-01T06:39:43.368Z,9.711838
2023-05-01T06:40:43.337Z,9.711918
2023-05-01T06:41:43.335Z,9.711750
2023-05-01T06:42:43.317Z,9.711830
2023-05-01T06:43:43.305Z,9.712090
2023-05-01T06:44:43.299Z,9.712119
2023-05-01T06:45:44.870Z,9.712081
2023-05-01T06:46:43.306Z,9.711975
2023-05-01T06:47:43.339Z,9.712223
2023-05-01T06:48:43.276Z,9.712282
2023-05-01T06:49:43.258Z,9.711793
2023-05-01T06:50:43.306Z,9.711951
2023-05-01T06:51:43.257Z,9.711981
2023-05-01T06:52:44.953Z,9.711913
2023-05-01T06:53:43.249Z,9.712172
2023-05-01T06:54:43.238Z,9.712502
2023-05-01T06:55:43.220Z,9.712074
2023-05-01T06:56:43.204Z,9.711878
2023-05-01T06:57:43.212Z,9.711835
2023-05-01T06:58:43.188Z,9.711813
2023-05-01T06:59:43.193Z,9.711789
2023-05-01T07:00:43.185Z,9.711853
2023-05-01T07:01:43.255Z,9.711820
2023-05-01T07:02:43.290Z,9.711807
2023-05-01T07:03:43.225Z,9.711764
2023-05-01T07:04:43.976Z,9.711749
2023-05-01T07:05:43.127Z,9.712047
2023-05-01T07:06:43.144Z,9.712334
2023-05-01T07:07:54.135Z,9.711978
2023-05-01T07:08:44.135Z,9.711963
2023-05-01T07:09:43.113Z,9.711945
2023-05-01T07:10:43.109Z,9.711897
2023-05-01T07:11:44.982Z,9.711838
2023-05-01T07:12:43.091Z,9.711772
2023-05-01T07:13:43.065Z,9.711843
2023-05-01T07:14:43.071Z,9.711753
2023-05-01T07:15:43.054Z,9.711779
2023-05-01T07:16:43.105Z,9.711818
2023-05-01T07:17:43.057Z,9.711896
2023-05-01T07:18:43.032Z,9.711946
2023-05-01T07:19:43.029Z,9.711825
2023-05-01T07:20:43.033Z,9.711725
2023-05-01T07:21:44.885Z,9.711774
2023-05-01T07:22:43.009Z,9.711881
2023-05-01T07:23:42.998Z,9.711996
2023-05-01T07:24:45.908Z,9.711949
2023-05-01T07:25:42.990Z,9.711877
2023-05-01T07:26:42.969Z,9.711989
2023-05-01T07:27:42.968Z,9.711890
2023-05-01T07:28:42.953Z,9.712011
2023-05-01T07:29:42.955Z,9.712011
2023-05-01T07:30:42.937Z,9.711987
2023-05-01T07:31:43.578Z,9.711997
2023-05-01T07:32:42.958Z,9.711916
2023-05-01T07:33:42.937Z,9.711979
2023-05-01T07:34:42.915Z,9.711991
2023-05-01T07:35:42.892Z,9.712104
2023-05-01T07:36:42.900Z,9.712102
2023-05-01T07:37:42.907Z,9.711927
2023-05-01T07:38:42.892Z,9.711826
2023-05-01T07:39:42.888Z,9.711828
2023-05-01T07:40:42.876Z,9.711832
2023-05-01T07:41:42.848Z,9.711915
2023-05-01T07:42:42.835Z,9.712044
2023-05-01T07:43:44.391Z,9.711898
2023-05-01T07:44:42.853Z,9.711854
2023-05-01T07:45:43.145Z,9.711987
2023-05-01T07:46:42.815Z,9.712083
2023-05-01T07:47:42.873Z,9.712040
2023-05-01T07:48:42.813Z,9.711969
2023-05-01T07:49:43.415Z,9.711913
2023-05-01T07:50:42.785Z,9.711934
2023-05-01T07:51:42.783Z,9.711841
2023-05-01T07:52:42.815Z,9.711732
2023-05-01T07:53:42.753Z,9.711669
2023-05-01T07:54:42.760Z,9.711784
2023-05-01T07:55:42.751Z,9.711895
2023-05-01T07:56:42.734Z,9.711715
2023-05-01T07:57:42.723Z,9.711853
2023-05-01T07:58:42.726Z,9.712023
2023-05-01T07:59:42.715Z,9.711922
2023-05-01T08:00:42.720Z,9.711873
2023-05-01T08:01:42.709Z,9.711759
2023-05-01T08:02:42.792Z,9.711831
2023-05-01T08:03:42.779Z,9.711823
2023-05-01T08:04:42.684Z,9.711754
2023-05-01T08:05:42.687Z,9.711664
2023-05-01T08:06:42.694Z,9.711852
2023-05-01T08:07:42.636Z,9.711806
2023-05-01T08:08:42.678Z,9.711709
2023-05-01T08:09:42.669Z,9.711729
2023-05-01T08:10:42.619Z,9.711745
2023-05-01T08:11:42.607Z,9.711669
2023-05-01T08:12:42.624Z,9.711763
2023-05-01T08:13:42.604Z,9.711736
2023-05-01T08:14:42.605Z,9.711760
2023-05-01T08:15:42.643Z,9.711765
2023-05-01T08:16:42.633Z,9.711770
2023-05-01T08:17:42.612Z,9.711754
2023-05-01T08:18:42.627Z,9.711674
2023-05-01T08:19:42.562Z,9.711648
2023-05-01T08:20:42.558Z,9.711637
2023-05-01T08:21:42.551Z,9.711800
2023-05-01T08:22:43.548Z,9.711742
2023-05-01T08:23:42.522Z,9.711592
2023-05-01T08:24:42.510Z,9.711674
2023-05-01T08:25:42.521Z,9.711564
2023-05-01T08:26:42.516Z,9.711596
2023-05-01T08:27:42.502Z,9.711678
2023-05-01T08:28:42.496Z,9.711688
2023-05-01T08:29:42.471Z,9.711673
2023-05-01T08:30:43.479Z,9.711637
2023-05-01T08:31:42.519Z,9.711544
2023-05-01T08:32:42.512Z,9.711631
2023-05-01T08:33:42.450Z,9.711747
2023-05-01T08:34:42.464Z,9.711705
2023-05-01T08:35:43.997Z,9.711834
2023-05-01T08:36:42.485Z,9.711856
2023-05-01T08:37:42.414Z,9.711792
2023-05-01T08:38:42.417Z,9.711575
2023-05-01T08:39:42.403Z,9.711609
2023-05-01T08:40:42.388Z,9.711665
2023-05-01T08:41:42.954Z,9.711699
2023-05-01T08:42:42.423Z,9.711815
2023-05-01T08:43:42.387Z,9.711720
2023-05-01T08:44:42.377Z,9.711831
2023-05-01T08:45:42.375Z,9.711657
2023-05-01T08:46:42.411Z,9.711635
2023-05-01T08:47:42.410Z,9.711619
2023-05-01T08:48:42.335Z,9.711592
2023-05-01T08:49:42.327Z,9.711663
2023-05-01T08:50:42.324Z,9.711798
2023-05-01T08:51:42.334Z,9.711890
2023-05-01T08:52:44.008Z,9.711683
2023-05-01T08:53:43.302Z,9.711538
2023-05-01T08:54:42.293Z,9.711777
2023-05-01T08:55:42.293Z,9.711873
2023-05-01T08:56:42.289Z,9.711943
2023-05-01T08:57:42.266Z,9.711666
2023-05-01T08:58:42.293Z,9.711399
2023-05-01T08:59:42.249Z,9.711549
2023-05-01T09:00:42.306Z,9.712119
2023-05-01T09:01:42.273Z,9.711886
2023-05-01T09:02:42.259Z,9.711749
2023-05-01T09:03:42.261Z,9.711761
2023-05-01T09:04:42.229Z,9.711787
2023-05-01T09:05:42.209Z,9.711919
2023-05-01T09:06:42.268Z,9.711926
2023-05-01T09:07:43.030Z,9.712431
2023-05-01T09:08:42.173Z,9.712576
2023-05-01T09:09:42.174Z,9.713107
2023-05-01T09:10:42.173Z,9.713112
2023-05-01T09:11:42.147Z,9.712855
2023-05-01T09:12:42.172Z,9.712972
2023-05-01T09:13:43.014Z,9.713049
2023-05-01T09:14:42.164Z,9.713118
2023-05-01T09:15:42.125Z,9.713076
2023-05-01T09:16:43.043Z,9.713375
2023-05-01T09:17:42.170Z,9.713417
2023-05-01T09:18:42.118Z,9.713194
2023-05-01T09:19:42.101Z,9.712625
2023-05-01T09:20:42.103Z,9.712124
2023-05-01T09:21:42.080Z,9.712019
2023-05-01T09:22:42.088Z,9.711662
2023-05-01T09:23:42.081Z,9.711817
2023-05-01T09:24:42.052Z,9.711966
2023-05-01T09:25:42.061Z,9.711935
2023-05-01T09:26:42.069Z,9.711915
2023-05-01T09:27:42.053Z,9.711956
2023-05-01T09:28:44.011Z,9.713177
2023-05-01T09:29:42.023Z,9.712831
2023-05-01T09:30:42.022Z,9.713243
2023-05-01T09:31:42.068Z,9.712273
2023-05-01T09:32:42.669Z,9.711758
2023-05-01T09:33:42.976Z,9.711802
2023-05-01T09:34:41.994Z,9.711698
2023-05-01T09:35:41.996Z,9.711215
2023-05-01T09:36:41.979Z,9.711595
2023-05-01T09:37:41.960Z,9.711697
2023-05-01T09:38:42.059Z,9.712045
2023-05-01T09:39:41.947Z,9.711844
2023-05-01T09:40:41.929Z,9.711684
2023-05-01T09:41:41.930Z,9.711640
2023-05-01T09:42:41.942Z,9.711495
2023-05-01T09:43:41.950Z,9.711659
2023-05-01T09:44:41.924Z,9.711783
2023-05-01T09:45:41.918Z,9.711832
2023-05-01T09:46:41.932Z,9.711888
2023-05-01T09:47:41.898Z,9.711882
2023-05-01T09:48:41.882Z,9.712012
2023-05-01T09:49:41.884Z,9.712012
2023-05-01T09:50:41.863Z,9.711861
2023-05-01T09:51:41.837Z,9.711713
2023-05-01T09:52:41.850Z,9.711617
2023-05-01T09:53:41.850Z,9.711603
2023-05-01T09:54:41.853Z,9.711601
2023-05-01T09:55:41.815Z,9.711613
2023-05-01T09:56:41.821Z,9.711594
2023-05-01T09:57:41.803Z,9.711638
2023-05-01T09:58:41.835Z,9.711628
2023-05-01T09:59:41.806Z,9.711521
2023-05-01T10:00:41.777Z,9.711439
2023-05-01T10:01:41.936Z,9.711469
2023-05-01T10:02:42.664Z,9.711537
2023-05-01T10:03:41.904Z,9.711726
2023-05-01T10:04:41.747Z,9.711666
2023-05-01T10:05:41.750Z,9.711591
2023-05-01T10:06:41.801Z,9.711538
2023-05-01T10:07:41.713Z,9.711647
2023-05-01T10:08:41.726Z,9.711631
2023-05-01T10:09:41.716Z,9.711608
2023-05-01T10:10:41.808Z,9.711638
2023-05-01T10:11:41.697Z,9.711703
2023-05-01T10:12:43.535Z,9.711688
2023-05-01T10:13:41.698Z,9.711653
2023-05-01T10:14:41.660Z,9.711608
2023-05-01T10:15:41.690Z,9.711569
2023-05-01T10:16:41.721Z,9.711699
2023-05-01T10:17:41.693Z,9.711711
2023-05-01T10:18:41.718Z,9.711593
2023-05-01T10:19:41.635Z,9.711698
2023-05-01T10:20:41.641Z,9.711702
2023-05-01T10:21:41.635Z,9.711696
2023-05-01T10:22:41.601Z,9.711639
2023-05-01T10:23:41.622Z,9.711587
2023-05-01T10:24:41.625Z,9.711578
2023-05-01T10:25:41.608Z,9.711522
2023-05-01T10:26:41.640Z,9.711493
2023-05-01T10:27:41.591Z,9.711554
2023-05-01T10:28:41.571Z,9.711568
2023-05-01T10:29:42.505Z,9.711560
2023-05-01T10:30:41.556Z,9.711635
2023-05-01T10:31:42.658Z,9.711593
2023-05-01T10:32:42.588Z,9.711581
2023-05-01T10:33:41.656Z,9.711634
2023-05-01T10:34:41.567Z,9.711537
2023-05-01T10:35:41.521Z,9.711549
2023-05-01T10:36:41.535Z,9.711525
2023-05-01T10:37:41.504Z,9.711511
2023-05-01T10:38:41.506Z,9.711600
2023-05-01T10:39:41.482Z,9.711569
2023-05-01T10:40:41.488Z,9.711617
2023-05-01T10:41:41.467Z,9.711650
2023-05-01T10:42:41.549Z,9.711557
2023-05-01T10:43:41.459Z,9.711633
2023-05-01T10:44:41.448Z,9.711632
2023-05-01T10:45:41.455Z,9.711678
2023-05-01T10:46:41.460Z,9.711643
2023-05-01T10:47:41.545Z,9.711638
2023-05-01T10:48:41.421Z,9.711683
2023-05-01T10:49:41.401Z,9.711703
2023-05-01T10:50:42.073Z,9.711724
2023-05-01T10:51:41.376Z,9.711656
2023-05-01T10:52:41.480Z,9.711802
2023-05-01T10:53:41.367Z,9.711549
2023-05-01T10:54:41.371Z,9.711690
2023-05-01T10:55:41.356Z,9.711843
2023-05-01T10:56:41.359Z,9.711696
2023-05-01T10:57:41.335Z,9.711466
2023-05-01T10:58:42.059Z,9.711915
2023-05-01T10:59:41.336Z,9.711701
2023-05-01T11:00:41.974Z,9.711901
2023-05-01T11:01:41.389Z,9.711859
2023-05-01T11:02:41.361Z,9.711858
2023-05-01T11:03:41.323Z,9.711704
2023-05-01T11:04:41.301Z,9.712223
2023-05-01T11:05:41.307Z,9.711887
2023-05-01T11:06:41.339Z,9.711864
2023-05-01T11:07:41.274Z,9.712038
2023-05-01T11:08:44.073Z,9.711855
2023-05-01T11:09:41.465Z,9.711386
2023-05-01T11:10:41.252Z,9.711935
2023-05-01T11:11:41.225Z,9.711911
2023-05-01T11:12:42.982Z,9.711896
2023-05-01T11:13:41.214Z,9.711782
2023-05-01T11:14:41.213Z,9.711699
2023-05-01T11:15:42.113Z,9.711711
2023-05-01T11:16:41.260Z,9.711698
2023-05-01T11:17:41.321Z,9.711844
2023-05-01T11:18:41.182Z,9.711745
2023-05-01T11:19:41.207Z,9.711346
2023-05-01T11:20:41.158Z,9.711987
2023-05-01T11:21:41.198Z,9.711575
2023-05-01T11:22:41.147Z,9.711815
2023-05-01T11:23:41.135Z,9.711888
2023-05-01T11:24:41.131Z,9.711960
2023-05-01T11:25:41.123Z,9.711583
2023-05-01T11:26:41.129Z,9.711714
2023-05-01T11:27:41.102Z,9.711797
2023-05-01T11:28:41.105Z,9.711587
2023-05-01T11:29:42.090Z,9.711721
2023-05-01T11:30:41.098Z,9.711409
2023-05-01T11:31:41.160Z,9.711527
2023-05-01T11:32:41.106Z,9.711710
2023-05-01T11:33:41.066Z,9.711779
2023-05-01T11:34:41.047Z,9.711563
2023-05-01T11:35:41.050Z,9.711764
2023-05-01T11:36:41.039Z,9.712211
2023-05-01T11:37:41.068Z,9.711820
2023-05-01T11:38:41.049Z,9.711610
2023-05-01T11:39:41.016Z,9.711837
2023-05-01T11:40:40.996Z,9.711996
2023-05-01T11:41:41.080Z,9.712212
2023-05-01T11:42:41.011Z,9.712600
2023-05-01T11:59:48.833Z,9.711686
2023-05-01T12:00:48.843Z,9.711891
2023-05-01T12:01:48.829Z,9.711866
2023-05-01T12:02:48.841Z,9.711798
2023-05-01T12:03:48.856Z,9.711786
2023-05-01T12:04:50.369Z,9.711776
2023-05-01T12:05:48.840Z,9.712072
2023-05-01T12:06:48.799Z,9.712000
2023-05-01T12:07:48.741Z,9.711980
2023-05-01T12:08:48.754Z,9.711845